Terminal Aerodrome Forecast
Issued by NWS

Home | Current Version | Previous Version | Graphics & Text | Print | Product List | Glossary On
Versions: 1 2 3 4 5 6 7 8 9 10 11 12 13 14 15 16
000
FTUS43 KTOP 291135
TAFMHK
TAF
KMHK 291135Z 2912/3012 10003KT P6SM SCT100
     FM291900 13006KT P6SM VCTS SCT045CB
     FM300100 09002KT P6SM SCT100=

USA.gov is the U.S. government's official web portal to all federal, state and local government web resources and services.